createdAt,value
2023-01-20T00:00:12.473Z,-0.43
2023-01-20T00:02:40.792Z,-0.92
2023-01-20T00:05:09.872Z,-0.49
2023-01-20T00:07:38.204Z,-0.55
2023-01-20T00:10:07.719Z,-0.50
2023-01-20T00:12:36.838Z,-0.58
2023-01-20T00:15:05.886Z,-0.55
2023-01-20T00:17:35.521Z,-0.48
2023-01-20T00:20:04.271Z,-0.33
2023-01-20T00:22:34.146Z,-0.47
2023-01-20T00:25:02.610Z,-0.26
2023-01-20T00:27:31.053Z,-0.35
2023-01-20T00:30:00.045Z,-0.46
2023-01-20T00:32:28.493Z,-0.42
2023-01-20T00:34:58.276Z,-0.14
2023-01-20T00:37:26.592Z,0.03
2023-01-20T00:39:54.995Z,-0.46
2023-01-20T00:42:23.316Z,-0.36
2023-01-20T00:44:51.696Z,-0.39
2023-01-20T00:47:20.963Z,-0.01
2023-01-20T00:49:49.646Z,-0.47
2023-01-20T00:52:19.588Z,-0.01
2023-01-20T00:54:48.037Z,-0.53
2023-01-20T00:57:16.407Z,-0.05
2023-01-20T00:59:44.717Z,-0.27
2023-01-20T01:02:13.149Z,-0.13
2023-01-20T01:04:41.649Z,-0.62
2023-01-20T01:07:10.742Z,-0.57
2023-01-20T01:09:40.399Z,0.14
2023-01-20T01:12:08.812Z,-0.61
2023-01-20T01:14:37.160Z,-0.23
2023-01-20T01:17:05.518Z,-0.67
2023-01-20T01:19:33.814Z,-0.77
2023-01-20T01:22:02.173Z,-0.67
2023-01-20T01:24:30.448Z,-0.66
2023-01-20T01:27:04.379Z,-0.64
2023-01-20T01:29:32.684Z,-0.59
2023-01-20T01:32:00.895Z,-0.45
2023-01-20T01:34:29.189Z,-0.56
2023-01-20T01:36:57.875Z,-0.64
2023-01-20T01:39:26.404Z,-0.62
2023-01-20T01:41:54.749Z,-0.52
2023-01-20T01:44:27.808Z,-0.41
2023-01-20T01:46:56.156Z,-0.17
2023-01-20T01:49:27.724Z,-0.25
2023-01-20T01:52:00.944Z,-0.28
2023-01-20T01:54:34.791Z,-0.40
2023-01-20T01:57:03.675Z,-0.66
2023-01-20T01:59:33.288Z,-0.60
2023-01-20T02:02:01.817Z,-0.71
2023-01-20T02:04:31.237Z,-0.61
2023-01-20T02:07:05.675Z,-0.56
2023-01-20T02:09:34.422Z,-0.78
2023-01-20T02:12:06.056Z,-0.72
2023-01-20T02:14:38.629Z,-0.64
2023-01-20T02:17:17.993Z,-0.84
2023-01-20T02:20:31.961Z,-0.83
2023-01-20T02:23:17.919Z,-0.79
2023-01-20T02:26:18.197Z,-0.63
2023-01-20T02:29:11.328Z,-0.58
2023-01-20T02:32:10.488Z,-0.85
2023-01-20T02:34:44.578Z,-0.98
2023-01-20T02:37:17.825Z,-0.76
2023-01-20T02:39:58.019Z,-0.57
2023-01-20T02:42:30.491Z,-0.34
2023-01-20T02:45:06.358Z,-0.53
2023-01-20T02:47:42.487Z,-0.12
2023-01-20T02:50:24.716Z,0.25
2023-01-20T02:52:55.904Z,-0.58
2023-01-20T02:55:29.915Z,-0.81
2023-01-20T02:58:03.119Z,-0.67
2023-01-20T03:00:37.493Z,-0.45
2023-01-20T03:03:11.315Z,-0.52
2023-01-20T03:05:44.113Z,-0.62
2023-01-20T03:08:15.810Z,-0.90
2023-01-20T03:10:47.195Z,-0.72
2023-01-20T03:13:21.456Z,-0.64
2023-01-20T03:15:59.625Z,-0.85
2023-01-20T03:18:31.483Z,-0.66
2023-01-20T03:21:01.978Z,-0.51
2023-01-20T03:23:33.916Z,-0.72
2023-01-20T03:26:05.967Z,-0.55
2023-01-20T03:28:34.327Z,-0.62
2023-01-20T03:31:07.264Z,-0.53
2023-01-20T03:33:37.321Z,-0.72
2023-01-20T03:36:06.502Z,-0.42
2023-01-20T03:38:34.919Z,-0.58
2023-01-20T03:41:08.709Z,-0.67
2023-01-20T03:43:44.641Z,-0.43
2023-01-20T03:46:21.916Z,-0.50
2023-01-20T03:48:57.917Z,-0.83
2023-01-20T03:51:31.291Z,-1.17
2023-01-20T03:54:04.785Z,-0.72
2023-01-20T03:56:38.254Z,-1.02
2023-01-20T03:59:09.171Z,-1.12
2023-01-20T04:01:42.687Z,-1.06
2023-01-20T04:04:17.330Z,-1.33
2023-01-20T04:06:47.482Z,-1.23
2023-01-20T04:09:23.301Z,-1.21
2023-01-20T04:11:52.351Z,-0.99
2023-01-20T04:14:20.843Z,-1.00
2023-01-20T04:16:55.327Z,-1.07
2023-01-20T04:19:25.339Z,-1.15
2023-01-20T04:22:01.116Z,-0.78
2023-01-20T04:24:35.740Z,-0.89
2023-01-20T04:27:04.439Z,-0.85
2023-01-20T04:29:32.761Z,-0.67
2023-01-20T04:32:01.623Z,-0.08
2023-01-20T04:34:31.618Z,-0.09
2023-01-20T04:37:00.231Z,0.14
2023-01-20T04:39:28.607Z,0.22
2023-01-20T04:41:56.959Z,-0.92
2023-01-20T04:44:25.329Z,-0.74
2023-01-20T04:46:57.659Z,-1.02
2023-01-20T04:49:26.124Z,-0.74
2023-01-20T04:51:55.807Z,-0.49
2023-01-20T04:54:24.149Z,-0.25
2023-01-20T04:56:54.623Z,-0.67
2023-01-20T04:59:23.053Z,-0.16
2023-01-20T05:01:51.406Z,0.00
2023-01-20T05:04:20.034Z,0.03
2023-01-20T05:06:48.406Z,-0.19
2023-01-20T05:09:18.275Z,-0.04
2023-01-20T05:11:46.630Z,0.04
2023-01-20T05:14:15.165Z,-0.04
2023-01-20T05:16:43.622Z,-0.50
2023-01-20T05:19:12.718Z,-0.56
2023-01-20T05:21:42.476Z,-0.16
2023-01-20T05:24:11.134Z,-0.55
2023-01-20T05:26:40.921Z,-0.91
2023-01-20T05:29:11.709Z,-0.94
2023-01-20T05:31:43.237Z,-0.81
2023-01-20T05:34:12.239Z,-1.23
2023-01-20T05:36:40.571Z,-0.97
2023-01-20T05:39:08.942Z,-1.17
2023-01-20T05:41:40.985Z,-1.16
2023-01-20T05:44:09.914Z,-1.31
2023-01-20T05:46:38.309Z,-1.08
2023-01-20T05:49:06.626Z,-1.27
2023-01-20T05:51:34.990Z,-1.34
2023-01-20T05:54:03.265Z,-1.41
2023-01-20T05:56:31.570Z,-1.59
2023-01-20T05:59:01.247Z,-1.64
2023-01-20T06:01:29.683Z,-1.59
2023-01-20T06:03:58.027Z,-1.54
2023-01-20T06:06:26.387Z,-1.64
2023-01-20T06:08:56.968Z,-1.89
2023-01-20T06:11:27.807Z,-1.72
2023-01-20T06:13:56.193Z,-0.94
2023-01-20T06:16:25.970Z,-0.26
2023-01-20T06:18:58.419Z,-0.48
2023-01-20T06:21:27.143Z,-1.58
2023-01-20T06:23:55.468Z,-1.63
2023-01-20T06:26:23.830Z,-1.74
2023-01-20T06:28:52.118Z,-1.61
2023-01-20T06:31:20.558Z,-1.50
2023-01-20T06:33:50.270Z,-1.56
2023-01-20T06:36:18.856Z,-1.44
2023-01-20T06:38:50.534Z,-1.41
2023-01-20T06:41:20.538Z,-1.42
2023-01-20T06:43:50.165Z,-1.52
2023-01-20T06:46:18.572Z,-1.23
2023-01-20T06:48:47.309Z,-0.77
2023-01-20T06:51:18.624Z,-0.23
2023-01-20T06:53:47.112Z,-0.60
2023-01-20T06:56:16.809Z,-0.53
2023-01-20T06:58:45.718Z,-0.70
2023-01-20T07:01:16.544Z,-0.98
2023-01-20T07:03:45.481Z,-1.27
2023-01-20T07:06:23.822Z,-1.77
2023-01-20T07:08:52.455Z,-2.04
2023-01-20T07:11:20.992Z,-2.01
2023-01-20T07:13:49.601Z,-1.97
2023-01-20T07:16:17.984Z,-1.79
2023-01-20T07:18:49.331Z,-1.96
2023-01-20T07:21:25.171Z,-1.83
2023-01-20T07:23:54.838Z,-1.95
2023-01-20T07:26:26.476Z,-1.70
2023-01-20T07:28:54.936Z,-1.75
2023-01-20T07:31:25.315Z,-2.02
2023-01-20T07:33:55.810Z,-1.90
2023-01-20T07:36:25.535Z,-1.76
2023-01-20T07:38:54.769Z,-1.91
2023-01-20T07:41:23.618Z,-1.77
2023-01-20T07:43:53.722Z,-2.19
2023-01-20T07:46:23.127Z,-1.79
2023-01-20T07:48:51.495Z,-1.92
2023-01-20T07:51:22.389Z,-1.78
2023-01-20T07:53:52.370Z,-1.55
2023-01-20T07:56:23.427Z,-1.38
2023-01-20T07:58:52.856Z,-1.38
2023-01-20T08:01:23.215Z,-1.63
2023-01-20T08:03:51.961Z,-1.76
2023-01-20T08:06:22.201Z,-1.57
2023-01-20T08:08:52.482Z,-1.69
2023-01-20T08:11:22.018Z,-1.43
2023-01-20T08:13:51.290Z,-1.74
2023-01-20T08:16:20.132Z,-1.76
2023-01-20T08:18:48.924Z,-1.46
2023-01-20T08:21:21.802Z,-1.51
2023-01-20T08:23:52.439Z,-1.38
2023-01-20T08:26:20.828Z,-1.57
2023-01-20T08:28:49.269Z,-1.82
2023-01-20T08:31:20.403Z,-1.88
2023-01-20T08:33:49.632Z,-1.79
2023-01-20T08:36:20.645Z,-1.26
2023-01-20T08:38:49.755Z,-1.26
2023-01-20T08:41:22.555Z,-0.08
2023-01-20T08:43:51.382Z,-0.20
2023-01-20T08:46:21.706Z,-1.26
2023-01-20T08:48:51.305Z,-1.40
2023-01-20T08:51:22.204Z,-1.33
2023-01-20T08:53:50.938Z,-1.38
2023-01-20T08:56:21.367Z,-0.76
2023-01-20T08:58:50.108Z,-0.37
2023-01-20T09:01:20.309Z,0.23
2023-01-20T09:04:03.878Z,0.22
2023-01-20T09:06:37.619Z,0.34
2023-01-20T09:09:06.094Z,0.11
2023-01-20T09:11:36.017Z,-0.16
2023-01-20T09:14:04.457Z,0.33
2023-01-20T09:16:32.915Z,0.14
2023-01-20T09:19:03.107Z,0.38
2023-01-20T09:21:31.498Z,0.63
2023-01-20T09:23:59.873Z,0.17
2023-01-20T09:26:35.629Z,0.49
2023-01-20T09:29:10.267Z,0.75
2023-01-20T09:31:39.791Z,-0.36
2023-01-20T09:34:08.490Z,-0.63
2023-01-20T09:36:36.775Z,-0.60
2023-01-20T09:39:23.002Z,-0.68
2023-01-20T09:42:14.067Z,-0.30
2023-01-20T09:44:53.864Z,-0.37
2023-01-20T09:47:31.198Z,-0.13
2023-01-20T09:50:36.265Z,-0.04
2023-01-20T09:53:15.484Z,-0.17
2023-01-20T09:55:49.955Z,-0.17
2023-01-20T09:58:29.847Z,-0.15
2023-01-20T10:01:07.892Z,-0.13
2023-01-20T10:03:42.876Z,-0.12
2023-01-20T10:06:24.890Z,-0.12
2023-01-20T10:09:05.477Z,0.11
2023-01-20T10:11:38.881Z,-0.04
2023-01-20T10:14:15.247Z,0.30
2023-01-20T10:16:50.127Z,0.31
2023-01-20T10:19:27.088Z,0.45
2023-01-20T10:22:02.541Z,0.77
2023-01-20T10:24:37.648Z,0.63
2023-01-20T10:27:06.779Z,0.78
2023-01-20T10:29:38.417Z,1.82
2023-01-20T10:32:15.048Z,1.91
2023-01-20T10:34:47.209Z,1.89
2023-01-20T10:37:16.298Z,2.03
2023-01-20T10:39:49.915Z,2.37
2023-01-20T10:42:19.704Z,1.72
2023-01-20T10:44:53.581Z,1.81
2023-01-20T10:47:42.300Z,1.69
2023-01-20T10:50:32.419Z,1.95
2023-01-20T10:53:42.517Z,2.00
2023-01-20T10:56:36.908Z,2.34
2023-01-20T10:59:15.108Z,2.20
2023-01-20T11:01:46.251Z,2.28
2023-01-20T11:04:20.723Z,2.42
2023-01-20T11:06:53.575Z,2.39
2023-01-20T11:09:32.698Z,2.52
2023-01-20T11:12:03.159Z,2.64
2023-01-20T11:14:32.043Z,2.35
2023-01-20T11:17:05.419Z,2.24
2023-01-20T11:19:49.851Z,2.50
2023-01-20T11:22:23.973Z,2.58
2023-01-20T11:24:56.664Z,2.88
2023-01-20T11:27:29.647Z,2.87
2023-01-20T11:30:01.147Z,2.87
2023-01-20T11:32:33.091Z,2.99
2023-01-20T11:35:19.004Z,3.01
2023-01-20T11:37:47.407Z,3.05
2023-01-20T11:40:22.599Z,3.14
2023-01-20T11:42:53.060Z,3.19
2023-01-20T11:45:34.630Z,3.12
2023-01-20T11:48:17.312Z,3.59
2023-01-20T11:50:50.397Z,3.52
2023-01-20T11:53:21.839Z,3.06
2023-01-20T11:55:56.853Z,3.31
2023-01-20T11:58:28.067Z,3.96
2023-01-20T12:01:04.822Z,4.00
2023-01-20T12:04:00.009Z,3.27
2023-01-20T12:06:33.544Z,3.22
2023-01-20T12:09:05.924Z,3.33
2023-01-20T12:11:39.126Z,2.54
2023-01-20T12:14:23.197Z,3.16
2023-01-20T12:17:04.585Z,3.24
2023-01-20T12:19:41.754Z,2.93
2023-01-20T12:22:17.520Z,2.71
2023-01-20T12:25:10.639Z,2.16
2023-01-20T12:27:46.111Z,2.84
2023-01-20T12:30:40.236Z,3.07
2023-01-20T12:33:18.118Z,3.05
2023-01-20T12:36:08.786Z,3.35
2023-01-20T12:38:50.897Z,2.96
2023-01-20T12:41:35.655Z,3.05
2023-01-20T12:44:13.279Z,3.20
2023-01-20T12:46:47.762Z,3.20
2023-01-20T12:49:43.590Z,2.87
2023-01-20T12:52:29.305Z,3.44
2023-01-20T12:55:16.545Z,3.39
2023-01-20T12:58:01.406Z,4.20
2023-01-20T13:00:56.435Z,3.88
2023-01-20T13:03:56.013Z,4.50
2023-01-20T13:06:46.921Z,4.11
2023-01-20T13:09:29.751Z,5.02
2023-01-20T13:12:10.634Z,5.47
2023-01-20T13:14:43.775Z,5.62
2023-01-20T13:17:23.426Z,5.18
2023-01-20T13:19:57.277Z,5.56
2023-01-20T13:22:26.734Z,4.94
2023-01-20T13:24:57.699Z,4.04
2023-01-20T13:27:29.732Z,4.41
2023-01-20T13:29:59.757Z,4.12
2023-01-20T13:32:34.097Z,4.32
2023-01-20T13:35:03.572Z,4.39
2023-01-20T13:37:37.505Z,3.94
2023-01-20T13:40:46.439Z,4.74
2023-01-20T13:43:48.742Z,4.70
2023-01-20T13:46:44.299Z,4.28
2023-01-20T13:49:29.395Z,4.37
2023-01-20T13:51:57.848Z,3.93
2023-01-20T13:54:43.168Z,4.12
2023-01-20T13:57:36.257Z,4.04
2023-01-20T14:00:20.591Z,4.51
2023-01-20T14:02:50.848Z,4.37
2023-01-20T14:05:31.385Z,4.40
2023-01-20T14:08:00.647Z,4.99
2023-01-20T14:10:29.255Z,5.01
2023-01-20T14:12:57.653Z,4.72
2023-01-20T14:15:35.048Z,4.52
2023-01-20T14:18:03.853Z,3.97
2023-01-20T14:20:32.590Z,4.30
2023-01-20T14:23:25.289Z,4.45
2023-01-20T14:26:05.874Z,3.81
2023-01-20T14:28:35.506Z,4.30
2023-01-20T14:31:20.300Z,4.14
2023-01-20T14:33:53.073Z,3.98
2023-01-20T14:36:23.955Z,4.12
2023-01-20T14:38:58.190Z,3.90
2023-01-20T14:41:30.642Z,3.53
2023-01-20T14:43:59.933Z,3.27
2023-01-20T14:46:31.337Z,2.89
2023-01-20T14:49:00.225Z,3.37
2023-01-20T14:51:28.834Z,3.06
2023-01-20T14:54:28.536Z,2.93
2023-01-20T14:56:57.233Z,3.39
2023-01-20T14:59:26.387Z,3.82
2023-01-20T15:02:01.746Z,3.29
2023-01-20T15:04:36.559Z,3.66
2023-01-20T15:07:05.504Z,2.78
2023-01-20T15:09:35.879Z,2.88
2023-01-20T15:12:33.770Z,2.93
2023-01-20T15:15:28.059Z,2.69
2023-01-20T15:18:20.028Z,2.52
2023-01-20T15:20:52.765Z,2.41
2023-01-20T15:23:31.049Z,2.06
2023-01-20T15:26:09.546Z,2.28
2023-01-20T15:28:42.628Z,2.12
2023-01-20T15:31:14.890Z,2.49
2023-01-20T15:33:45.261Z,2.30
2023-01-20T15:36:25.054Z,2.24
2023-01-20T15:38:53.594Z,2.00
2023-01-20T15:41:22.344Z,2.08
2023-01-20T15:43:52.416Z,1.88
2023-01-20T15:46:21.308Z,2.02
2023-01-20T15:48:51.233Z,2.35
2023-01-20T15:51:21.331Z,1.90
2023-01-20T15:53:49.751Z,2.26
2023-01-20T15:56:21.293Z,2.04
2023-01-20T15:58:51.027Z,2.11
2023-01-20T16:01:23.821Z,1.82
2023-01-20T16:03:54.934Z,1.86
2023-01-20T16:06:27.235Z,1.78
2023-01-20T16:08:55.689Z,2.27
2023-01-20T16:11:24.215Z,2.27
2023-01-20T16:13:54.713Z,1.51
2023-01-20T16:16:25.815Z,1.67
2023-01-20T16:18:56.446Z,1.44
2023-01-20T16:21:24.979Z,1.23
2023-01-20T16:23:53.382Z,1.07
2023-01-20T16:26:24.075Z,1.12
2023-01-20T16:28:54.076Z,1.01
2023-01-20T16:31:23.664Z,0.95
2023-01-20T16:33:56.114Z,0.92
2023-01-20T16:36:25.212Z,0.83
2023-01-20T16:38:54.234Z,0.85
2023-01-20T16:41:23.887Z,0.65
2023-01-20T16:43:53.137Z,0.88
2023-01-20T16:46:23.597Z,0.29
2023-01-20T16:48:53.391Z,0.16
2023-01-20T16:51:26.212Z,0.46
2023-01-20T16:53:56.979Z,0.53
2023-01-20T16:56:27.733Z,0.65
2023-01-20T16:58:58.262Z,0.43
2023-01-20T17:01:27.373Z,0.69
2023-01-20T17:03:57.533Z,1.10
2023-01-20T17:06:28.558Z,0.48
2023-01-20T17:08:58.702Z,0.32
2023-01-20T17:11:29.487Z,0.55
2023-01-20T17:13:58.743Z,0.96
2023-01-20T17:16:29.824Z,0.90
2023-01-20T17:18:59.681Z,0.54
2023-01-20T17:21:31.443Z,0.69
2023-01-20T17:24:01.781Z,0.44
2023-01-20T17:26:31.420Z,0.75
2023-01-20T17:29:03.959Z,0.58
2023-01-20T17:31:34.429Z,0.46
2023-01-20T17:34:03.012Z,0.37
2023-01-20T17:36:34.555Z,0.20
2023-01-20T17:39:03.929Z,-0.05
2023-01-20T17:41:32.392Z,0.19
2023-01-20T17:44:00.990Z,0.46
2023-01-20T17:46:30.836Z,0.14
2023-01-20T17:49:00.112Z,0.21
2023-01-20T17:51:30.158Z,0.12
2023-01-20T17:54:03.373Z,0.20
2023-01-20T17:56:32.249Z,0.52
2023-01-20T17:59:00.666Z,0.34
2023-01-20T18:01:31.386Z,0.13
2023-01-20T18:04:00.876Z,-0.06
2023-01-20T18:06:30.552Z,-0.14
2023-01-20T18:09:01.284Z,-0.26
2023-01-20T18:11:31.838Z,-0.15
2023-01-20T18:14:01.662Z,0.09
2023-01-20T18:16:32.336Z,-0.07
2023-01-20T18:19:00.857Z,0.02
2023-01-20T18:21:31.095Z,0.09
2023-01-20T18:24:02.635Z,-0.15
2023-01-20T18:26:33.628Z,0.22
2023-01-20T18:29:03.947Z,0.10
2023-01-20T18:31:33.336Z,0.12
2023-01-20T18:34:03.860Z,0.04
2023-01-20T18:36:36.933Z,0.07
2023-01-20T18:39:08.580Z,0.12
2023-01-20T18:41:38.122Z,0.23
2023-01-20T18:44:07.520Z,0.13
2023-01-20T18:46:36.258Z,0.48
2023-01-20T18:49:06.427Z,0.37
2023-01-20T18:51:36.371Z,0.49
2023-01-20T18:54:09.792Z,0.47
2023-01-20T18:56:39.421Z,0.60
2023-01-20T18:59:08.398Z,0.75
2023-01-20T19:01:39.641Z,0.67
2023-01-20T19:04:10.458Z,0.52
2023-01-20T19:06:40.400Z,0.26
2023-01-20T19:09:10.871Z,0.28
2023-01-20T19:11:41.045Z,0.62
2023-01-20T19:14:12.435Z,0.49
2023-01-20T19:16:45.152Z,0.15
2023-01-20T19:19:14.529Z,0.44
2023-01-20T19:21:43.745Z,0.58
2023-01-20T19:24:19.959Z,0.53
2023-01-20T19:26:48.435Z,0.69
2023-01-20T19:29:18.696Z,0.59
2023-01-20T19:31:47.281Z,0.72
2023-01-20T19:34:16.002Z,0.51
2023-01-20T19:36:44.389Z,0.78
2023-01-20T19:39:14.275Z,0.79
2023-01-20T19:41:43.778Z,0.64
2023-01-20T19:44:13.954Z,0.78
2023-01-20T19:46:42.702Z,0.47
2023-01-20T19:49:12.169Z,-0.05
2023-01-20T19:51:40.789Z,-0.13
2023-01-20T19:54:10.778Z,-0.23
2023-01-20T19:56:41.413Z,-0.25
2023-01-20T19:59:12.846Z,-0.15
2023-01-20T20:01:41.479Z,-0.14
2023-01-20T20:04:12.773Z,-0.20
2023-01-20T20:06:47.794Z,-0.21
2023-01-20T20:09:18.921Z,-0.23
2023-01-20T20:11:48.716Z,-0.15
2023-01-20T20:14:23.942Z,-0.16
2023-01-20T20:16:52.294Z,0.02
2023-01-20T20:19:21.051Z,0.27
2023-01-20T20:21:50.043Z,0.33
2023-01-20T20:24:19.578Z,0.20
2023-01-20T20:26:49.754Z,0.20
2023-01-20T20:29:19.653Z,0.16
2023-01-20T20:31:48.387Z,0.32
2023-01-20T20:34:27.856Z,0.77
2023-01-20T20:36:56.207Z,0.59
2023-01-20T20:39:24.595Z,0.39
2023-01-20T20:41:56.860Z,0.33
2023-01-20T20:44:25.185Z,0.59
2023-01-20T20:46:53.544Z,0.15
2023-01-20T20:49:22.134Z,-0.05
2023-01-20T20:51:50.476Z,-0.22
2023-01-20T20:54:19.976Z,-0.05
2023-01-20T20:56:51.748Z,0.27
2023-01-20T20:59:27.676Z,0.07
2023-01-20T21:01:56.337Z,0.66
2023-01-20T21:04:25.237Z,0.44
2023-01-20T21:06:53.899Z,0.21
2023-01-20T21:09:22.333Z,0.49
2023-01-20T21:11:50.692Z,-0.22
2023-01-20T21:14:21.411Z,-0.25
2023-01-20T21:16:51.212Z,-0.62
2023-01-20T21:19:19.655Z,-0.70
2023-01-20T21:21:48.408Z,-0.73
2023-01-20T21:24:17.015Z,-0.70
2023-01-20T21:26:45.566Z,-0.88
2023-01-20T21:29:13.970Z,-0.73
2023-01-20T21:31:42.374Z,-0.84
2023-01-20T21:34:14.593Z,-1.15
2023-01-20T21:36:43.073Z,-1.15
2023-01-20T21:39:13.224Z,-1.31
2023-01-20T21:41:41.889Z,-1.24
2023-01-20T21:44:29.730Z,-0.98
2023-01-20T21:46:59.414Z,-0.75
2023-01-20T21:49:47.403Z,-1.07
2023-01-20T21:52:35.147Z,-1.12
2023-01-20T21:55:04.325Z,-1.05
2023-01-20T21:57:33.112Z,-1.04
2023-01-20T22:02:39.719Z,-0.70
2023-01-20T22:05:08.927Z,-0.91
2023-01-20T22:07:37.280Z,-0.91
2023-01-20T22:10:07.649Z,-0.99
2023-01-20T22:12:36.049Z,-0.87
2023-01-20T22:15:05.085Z,-0.92
2023-01-20T22:17:35.855Z,-0.76
2023-01-20T22:20:08.711Z,-0.85
2023-01-20T22:22:37.051Z,-0.29
2023-01-20T22:25:08.322Z,-1.21
2023-01-20T22:27:38.938Z,-1.40
2023-01-20T22:30:08.288Z,-1.18
2023-01-20T22:32:36.670Z,-1.31
2023-01-20T22:35:07.161Z,-1.43
2023-01-20T22:37:35.556Z,-1.47
2023-01-20T22:40:05.104Z,-1.47
2023-01-20T22:42:33.474Z,-1.51
2023-01-20T22:45:01.885Z,-1.44
2023-01-20T22:47:30.305Z,-1.53
2023-01-20T22:49:58.680Z,-1.48
2023-01-20T22:52:28.337Z,-1.45
2023-01-20T22:54:56.711Z,-1.43
2023-01-20T22:57:25.018Z,-1.29
2023-01-20T22:59:53.379Z,-1.36
2023-01-20T23:02:21.915Z,-1.14
2023-01-20T23:04:52.397Z,-0.99
2023-01-20T23:07:22.978Z,-0.84
2023-01-20T23:09:52.696Z,-0.75
2023-01-20T23:12:23.391Z,-0.88
2023-01-20T23:15:00.971Z,-1.09
2023-01-20T23:17:31.028Z,-0.97
2023-01-20T23:19:59.611Z,-1.29
2023-01-20T23:22:29.691Z,-1.41
2023-01-20T23:24:59.432Z,-1.24
2023-01-20T23:27:27.934Z,-1.22
2023-01-20T23:29:56.940Z,-0.82
2023-01-20T23:32:25.598Z,-1.24
2023-01-20T23:34:53.871Z,-0.83
2023-01-20T23:37:24.679Z,-0.93
2023-01-20T23:39:53.059Z,-1.02
2023-01-20T23:42:22.736Z,-1.30
2023-01-20T23:44:51.664Z,-1.27
2023-01-20T23:47:19.936Z,-1.19
2023-01-20T23:49:48.292Z,-1.23
2023-01-20T23:52:16.498Z,-1.39
2023-01-20T23:54:44.763Z,-1.39
2023-01-20T23:57:13.134Z,-1.27
2023-01-20T23:59:42.829Z,-1.34
